Malaga, Spain

3:37 PM CET on November 28, 2014 (GMT +0100)
IALALHAU2 | Change Station
CLOSE
Current Station
Personal Weather Station
Location: Alhaurin De La Torre, Malaga
Elevation: 360 ft
Nearby Weather Stations

Elev 360 ft 36.66 °N, 4.55 °W | Updated 3 minutes ago

Scattered Clouds
Scattered Clouds
61.2 °F
Feels Like 61.2 °F
N
1.0
Wind Variable Wind from East
Gusts 4.9 mph

Today
High -- | Low -- °F
--% Chance of Precip.
Yesterday
High -- | Low -- °F
Precip. -- in
8:08 AM 6:02 PM
Waxing Crescent, 41% visible
Pressure 29.15 in
Visibility 6.2 miles
Clouds Few 1500 ft
Scattered Clouds 4000 ft
Dew Point 50 °F
Humidity 67%
Rainfall -999.00 in
Snow Depth Not available.
UV 2 out of 12
Pollen Not available.
Air Quality Not available.
Flu Activity Not available.
METAR LEMG 281430Z 26004KT 200V330 9999 FEW015 SCT040 18/10 Q0987 NOSIG

More Conditions Fewer Conditions

Pressure 29.15 in
Visibility 6.2 miles
Clouds Few 1500 ft
Scattered Clouds 4000 ft
Dew Point 50 °F
Humidity 67%
Rainfall -999.00 in
Snow Depth Not available.
UV 2 out of 12
Pollen Not available.
Air Quality Not available.
Flu Activity Not available.
METAR LEMG 281430Z 26004KT 200V330 9999 FEW015 SCT040 18/10 Q0987 NOSIG

More Conditions Fewer Conditions

10-Day Weather Forecast

Almanac

Astronomy

Nov. 28, 2014 Rise Set
Actual Time
Civil Twilight
Nautical Twilight
Astronomical Twilight
Moon
Length of Visible Light
Length of Day
Tomorrow will be .
, % of the Moon is Illuminated

Today's Extremes

Country Highs Country Lows

Community

WunderPhotos

Upload Photos

1,774,215 photos uploaded!

WunderBlogs® & News

Nearby

Air Quality

  Air Quality AQ Index Pollutant
Not available.

Snow Depth

Station Depth Elevation

Earthquake Activity

City Distance Mag. Time & Date
Minimum magnitude displayed is 2.5.

Coastal Water Temperatures

Place Temperature

Nearby Weather Stations